Time;durP1;ratioP1;P1;durP2;ratioP2;P2;SDS_P1;SDS_P2;PMS_P1;PMS_P2;Temp;Humidity;BMP_temperature;BMP_pressure;BME280_temperature;BME280_humidity;BME280_pressure;Samples;Min_cycle;Max_cycle;Signal;HPM_P1;HPM_P2
2022/04/03 00:00:14;;;;;;;;;3.25;3.25;;;;;18.13;26.42;101682.66;4975471;28;45194;-66
2022/04/03 00:02:40;;;;;;;;;3.25;3.25;;;;;18.14;26.31;101684.34;4975614;28;45489;-65
2022/04/03 00:05:05;;;;;;;;;2.67;2.67;;;;;18.12;26.48;101682.69;4975082;28;49136;-66
2022/04/03 00:07:32;;;;;;;;;3.25;3.25;;;;;18.13;26.45;101680.03;4975380;28;45383;-62
2022/04/03 00:09:58;;;;;;;;;3.75;3.75;;;;;18.13;26.51;101685.28;4975460;28;45382;-65
2022/04/03 00:12:24;;;;;;;;;4.50;3.25;;;;;18.12;26.51;101683.56;4975887;28;45334;-65
2022/04/03 00:14:49;;;;;;;;;3.50;3.00;;;;;18.11;26.54;101687.09;4973752;28;45396;-65
2022/04/03 00:17:14;;;;;;;;;2.00;2.00;;;;;18.11;26.47;101692.31;4975150;28;45368;-65
2022/04/03 00:19:40;;;;;;;;;3.50;3.00;;;;;18.10;26.45;101685.38;4975189;28;45299;-64
2022/04/03 00:22:05;;;;;;;;;5.75;4.75;;;;;18.10;26.37;101685.38;4975552;28;45150;-66
2022/04/03 00:24:30;;;;;;;;;4.00;3.00;;;;;18.12;26.41;101688.81;4975053;28;45916;-63
2022/04/03 00:26:56;;;;;;;;;3.75;2.50;;;;;18.11;26.51;101686.22;4973902;28;45317;-63
2022/04/03 00:29:23;;;;;;;;;3.00;1.75;;;;;18.11;26.51;101692.31;4975515;28;45414;-63
2022/04/03 00:31:49;;;;;;;;;3.00;3.00;;;;;18.11;26.52;101697.56;4976738;28;45382;-66
2022/04/03 00:34:14;;;;;;;;;4.50;4.50;;;;;18.09;26.40;101688.88;4974703;28;45406;-63
2022/04/03 00:36:39;;;;;;;;;6.00;3.00;;;;;18.08;26.53;101692.41;4974892;28;45410;-66
2022/04/03 00:39:04;;;;;;;;;4.25;3.75;;;;;18.09;26.54;101696.75;4974932;28;45352;-66
2022/04/03 00:41:30;;;;;;;;;4.33;4.33;;;;;18.08;26.67;101689.78;4975059;28;45619;-65
2022/04/03 00:43:57;;;;;;;;;6.00;5.00;;;;;18.09;26.74;101691.50;4973788;28;45404;-64
2022/04/03 00:46:26;;;;;;;;;5.00;5.00;;;;;18.08;26.54;101693.25;4974733;28;45841;-66
2022/04/03 00:48:52;;;;;;;;;4.50;4.00;;;;;18.06;26.59;101692.47;4974839;28;45452;-65
2022/04/03 00:51:18;;;;;;;;;4.00;4.00;;;;;18.08;26.61;101692.41;4973885;28;45613;-66
2022/04/03 00:53:44;;;;;;;;;3.25;3.25;;;;;18.06;26.53;101694.22;4974282;28;46933;-65
2022/04/03 00:56:10;;;;;;;;;3.00;3.00;;;;;18.06;26.39;101689.84;4974590;28;45976;-65
2022/04/03 00:58:38;;;;;;;;;3.75;3.75;;;;;18.04;26.61;101696.91;4974902;28;45260;-66
2022/04/03 01:01:04;;;;;;;;;4.75;4.00;;;;;18.06;26.59;101688.97;4974856;28;45511;-66
2022/04/03 01:03:29;;;;;;;;;3.75;3.75;;;;;18.05;26.50;101688.13;4974549;28;46633;-66
2022/04/03 01:05:56;;;;;;;;;3.25;3.25;;;;;18.04;26.61;101689.03;4975102;28;45532;-66
2022/04/03 01:08:23;;;;;;;;;2.25;2.25;;;;;18.04;26.75;101680.28;4974673;28;45348;-66
2022/04/03 01:10:48;;;;;;;;;4.00;4.00;;;;;18.04;26.45;101689.03;4974825;28;45297;-66
2022/04/03 01:13:14;;;;;;;;;4.25;3.50;;;;;18.04;26.59;101688.16;4974537;28;46469;-66
2022/04/03 01:15:39;;;;;;;;;2.25;2.25;;;;;18.04;26.55;101682.91;4974439;28;45372;-66
2022/04/03 01:18:05;;;;;;;;;4.00;4.00;;;;;18.04;26.60;101685.53;4974738;28;45360;-65
2022/04/03 01:20:30;;;;;;;;;6.50;3.75;;;;;18.04;26.51;101680.28;4974857;28;45470;-65
2022/04/03 01:22:56;;;;;;;;;2.25;2.25;;;;;18.03;26.60;101691.69;4973425;28;48229;-66
2022/04/03 01:25:21;;;;;;;;;4.25;4.00;;;;;18.01;26.63;101678.63;4974492;28;45435;-65
2022/04/03 01:27:47;;;;;;;;;2.25;2.25;;;;;18.02;26.62;101682.13;4973171;28;45426;-67
2022/04/03 01:30:12;;;;;;;;;4.00;4.00;;;;;18.01;26.57;101683.03;4973848;28;45453;-64
2022/04/03 01:32:38;;;;;;;;;4.25;3.00;;;;;18.00;26.56;101682.16;4972999;28;45711;-65
2022/04/03 01:35:05;;;;;;;;;5.00;4.00;;;;;18.01;26.72;101677.78;4974318;28;45356;-65
2022/04/03 01:37:30;;;;;;;;;4.00;4.00;;;;;18.00;26.30;101691.81;4974312;28;45476;-63
2022/04/03 01:39:55;;;;;;;;;4.75;4.00;;;;;18.00;26.49;101682.16;4974986;28;45246;-65
2022/04/03 01:42:21;;;;;;;;;5.00;3.00;;;;;17.99;26.62;101679.59;4975729;28;45351;-62
2022/04/03 01:44:46;;;;;;;;;2.00;2.00;;;;;17.98;26.57;101670.84;4974375;28;45431;-64
2022/04/03 01:47:12;;;;;;;;;4.00;4.00;;;;;17.99;26.64;101682.22;4974239;28;45451;-64
2022/04/03 01:49:37;;;;;;;;;4.00;4.00;;;;;17.99;26.89;101684.84;4974500;28;45220;-64
2022/04/03 01:52:03;;;;;;;;;5.00;4.00;;;;;17.98;26.70;101680.50;4972487;28;47894;-63
2022/04/03 01:54:28;;;;;;;;;2.75;2.75;;;;;17.97;26.74;101686.66;4974059;28;45384;-62
2022/04/03 01:56:54;;;;;;;;;2.25;2.25;;;;;17.96;26.53;101677.91;4974095;28;45324;-62
2022/04/03 01:59:19;;;;;;;;;3.00;3.00;;;;;17.96;26.67;101683.16;4974194;28;45528;-64
2022/04/03 02:01:45;;;;;;;;;2.00;2.00;;;;;17.97;26.60;101690.13;4973794;28;45311;-65
2022/04/03 02:04:10;;;;;;;;;4.75;4.25;;;;;17.96;26.45;101687.50;4973816;28;45321;-65
2022/04/03 02:06:36;;;;;;;;;3.25;3.25;;;;;17.95;26.71;101683.16;4973735;28;45388;-62
2022/04/03 02:09:02;;;;;;;;;4.25;4.00;;;;;17.95;26.63;101681.44;4974814;28;45466;-64
2022/04/03 02:11:28;;;;;;;;;3.00;3.00;;;;;17.95;26.65;101686.66;4974143;28;46272;-62
2022/04/03 02:13:53;;;;;;;;;4.00;4.00;;;;;17.95;26.67;101670.06;4973818;28;45772;-61
2022/04/03 02:16:18;;;;;;;;;3.00;3.00;;;;;17.92;26.58;101679.72;4973829;28;45268;-64
2022/04/03 02:18:44;;;;;;;;;6.00;5.00;;;;;17.92;26.84;101676.25;4973750;28;45368;-65
2022/04/03 02:21:09;;;;;;;;;3.00;3.00;;;;;17.95;26.98;101680.56;4973676;28;45331;-62
2022/04/03 02:23:35;;;;;;;;;3.50;3.50;;;;;17.98;27.00;101673.47;4972337;28;45344;-65
2022/04/03 02:26:00;;;;;;;;;3.25;3.25;;;;;17.99;26.89;101677.81;4974102;28;45362;-62
2022/04/03 02:28:25;;;;;;;;;3.00;3.00;;;;;18.04;26.92;101681.16;4973755;28;45558;-61
2022/04/03 02:30:51;;;;;;;;;3.00;3.00;;;;;18.11;27.26;101681.84;4973384;28;46048;-65
2022/04/03 02:33:16;;;;;;;;;4.50;3.00;;;;;18.16;27.10;101685.16;4972185;28;45749;-65
2022/04/03 02:35:42;;;;;;;;;4.75;3.00;;;;;18.21;27.08;101680.63;4973341;28;45303;-63
2022/04/03 02:38:08;;;;;;;;;3.00;3.00;;;;;18.27;27.02;101681.31;4973482;28;45307;-62
2022/04/03 02:40:34;;;;;;;;;3.00;3.00;;;;;18.32;26.99;101688.16;4973162;28;46102;-62
2022/04/03 02:42:59;;;;;;;;;3.25;3.25;;;;;18.38;27.07;101684.47;4974041;28;45677;-66
2022/04/03 02:45:25;;;;;;;;;4.50;4.00;;;;;18.43;26.94;101682.56;4976332;28;45305;-65
2022/04/03 02:47:52;;;;;;;;;3.00;3.00;;;;;18.48;27.01;101691.13;4975009;28;45479;-65
2022/04/03 02:50:20;;;;;;;;;4.75;3.00;;;;;18.51;26.85;101691.03;4976247;28;45542;-65
2022/04/03 02:52:46;;;;;;;;;4.00;4.00;;;;;18.56;26.82;101671.66;4976020;28;45442;-66
2022/04/03 02:55:12;;;;;;;;;3.75;3.50;;;;;18.59;26.99;101671.53;4976098;28;45193;-65
2022/04/03 02:57:37;;;;;;;;;2.50;2.50;;;;;18.63;26.69;101681.03;4976413;28;45485;-65
2022/04/03 03:00:05;;;;;;;;;4.00;3.00;;;;;18.64;26.90;101675.72;4976179;28;46103;-67
2022/04/03 03:02:31;;;;;;;;;3.75;3.75;;;;;18.66;27.26;101680.94;4976269;28;45242;-66
2022/04/03 03:04:56;;;;;;;;;5.75;3.25;;;;;18.66;26.68;101678.31;4976063;28;45359;-65
2022/04/03 03:07:22;;;;;;;;;3.00;3.00;;;;;18.68;26.67;101687.00;4976243;28;45362;-66
2022/04/03 03:09:48;;;;;;;;;2.75;2.75;;;;;18.69;26.77;101688.69;4975924;28;45894;-67
2022/04/03 03:12:14;;;;;;;;;3.50;3.50;;;;;18.69;26.83;101688.69;4975939;28;45860;-66
2022/04/03 03:14:39;;;;;;;;;3.00;3.00;;;;;18.70;26.71;101687.78;4976043;28;45789;-66
2022/04/03 03:17:05;;;;;;;;;2.50;2.50;;;;;18.70;26.51;101693.03;4974736;28;45352;-64
2022/04/03 03:19:31;;;;;;;;;3.25;3.00;;;;;18.70;26.65;101693.03;4975893;28;45564;-66
2022/04/03 03:21:56;;;;;;;;;2.00;2.00;;;;;18.70;26.59;101690.41;4974369;28;45396;-66
2022/04/03 03:24:22;;;;;;;;;4.50;3.50;;;;;18.70;26.83;101699.16;4974595;28;45444;-66
2022/04/03 03:26:47;;;;;;;;;3.25;3.00;;;;;18.70;26.58;101690.41;4976120;28;45326;-66
2022/04/03 03:29:13;;;;;;;;;3.25;3.25;;;;;18.69;27.08;101710.56;4974540;28;46948;-66
2022/04/03 03:31:38;;;;;;;;;5.25;2.25;;;;;18.70;26.77;101709.66;4975557;28;45340;-65
2022/04/03 03:34:04;;;;;;;;;4.25;3.00;;;;;18.72;26.83;101711.38;4975917;28;45299;-66
2022/04/03 03:36:29;;;;;;;;;4.00;3.00;;;;;18.72;26.68;101709.59;4974543;28;45631;-65
2022/04/03 03:38:55;;;;;;;;;3.50;3.50;;;;;18.72;26.68;101709.59;4975407;28;46140;-64
2022/04/03 03:41:21;;;;;;;;;2.75;2.75;;;;;18.72;26.63;101704.34;4975600;28;45316;-65
2022/04/03 03:43:47;;;;;;;;;2.25;2.25;;;;;18.73;26.64;101700.81;4975710;28;45414;-65
2022/04/03 03:46:13;;;;;;;;;4.00;4.00;;;;;18.73;26.67;101700.81;4975710;28;45351;-65
2022/04/03 03:48:39;;;;;;;;;4.50;4.00;;;;;18.72;26.54;101704.34;4975285;28;45322;-66
2022/04/03 03:51:04;;;;;;;;;3.00;3.00;;;;;18.70;26.83;101712.28;4975740;28;45372;-66
2022/04/03 03:53:31;;;;;;;;;3.00;2.00;;;;;18.72;26.78;101708.75;4975042;28;45406;-65
2022/04/03 03:55:57;;;;;;;;;5.00;5.00;;;;;18.70;26.66;101708.78;4975619;28;45220;-63
2022/04/03 03:58:23;;;;;;;;;4.00;3.00;;;;;18.70;26.72;101712.28;4975185;28;46152;-65
2022/04/03 04:00:48;;;;;;;;;2.75;2.25;;;;;18.69;26.80;101712.31;4974084;28;45269;-66
2022/04/03 04:03:14;;;;;;;;;5.00;4.75;;;;;18.70;26.70;101700.91;4975371;28;45346;-66
2022/04/03 04:05:40;;;;;;;;;3.50;3.50;;;;;18.69;26.95;101707.06;4974328;28;45466;-66
2022/04/03 04:08:06;;;;;;;;;3.75;3.75;;;;;18.68;26.45;101714.09;4975469;28;46884;-64
2022/04/03 04:10:31;;;;;;;;;3.00;3.00;;;;;18.67;26.61;101706.28;4975187;28;45359;-64
2022/04/03 04:12:56;;;;;;;;;3.00;3.00;;;;;18.67;26.52;101709.75;4975258;28;45359;-63
2022/04/03 04:15:22;;;;;;;;;5.25;3.25;;;;;18.66;26.65;101713.28;4975525;28;45348;-66
2022/04/03 04:17:48;;;;;;;;;2.50;2.50;;;;;18.66;26.52;101712.44;4974773;28;45484;-63
2022/04/03 04:20:16;;;;;;;;;3.00;3.00;;;;;18.63;26.73;101716.00;4973844;28;45795;-68
2022/04/03 04:22:44;;;;;;;;;4.25;2.25;;;;;18.64;26.72;101722.97;4975262;28;45347;-63
2022/04/03 04:25:11;;;;;;;;;3.00;3.00;;;;;18.62;26.75;101714.31;4975230;28;45489;-67
2022/04/03 04:27:37;;;;;;;;;2.50;2.50;;;;;18.63;26.60;101728.28;4973942;28;46129;-67
2022/04/03 04:30:03;;;;;;;;;5.00;4.00;;;;;18.62;26.61;101730.06;4975106;28;45445;-66
2022/04/03 04:32:28;;;;;;;;;2.00;2.00;;;;;18.61;26.67;101727.47;4974899;28;45360;-66
2022/04/03 04:34:54;;;;;;;;;3.25;3.25;;;;;18.60;26.54;101736.25;4975090;28;45394;-66
2022/04/03 04:37:19;;;;;;;;;3.25;3.00;;;;;18.58;26.82;101738.06;4974743;28;45395;-67
2022/04/03 04:39:46;;;;;;;;;4.00;4.00;;;;;18.58;26.83;101730.19;4974780;28;45442;-66
2022/04/03 04:42:12;;;;;;;;;2.25;2.25;;;;;18.58;26.70;101735.44;4974899;28;45237;-64
2022/04/03 04:44:37;;;;;;;;;4.00;3.25;;;;;18.56;26.78;101738.13;4975418;28;45296;-66
2022/04/03 04:47:03;;;;;;;;;3.00;3.00;;;;;18.56;26.71;101738.13;4974509;28;45280;-67
2022/04/03 04:49:28;;;;;;;;;3.00;3.00;;;;;18.54;26.63;101737.31;4973591;28;45383;-66
2022/04/03 04:51:54;;;;;;;;;4.00;3.75;;;;;18.53;26.67;101741.72;4974937;28;45259;-67
2022/04/03 04:54:19;;;;;;;;;3.00;2.00;;;;;18.52;26.81;101740.00;4974775;28;45605;-66
2022/04/03 04:56:46;;;;;;;;;5.75;4.25;;;;;18.53;26.96;101743.47;4974373;28;46258;-66
2022/04/03 04:59:11;;;;;;;;;3.25;3.25;;;;;18.51;26.75;101753.19;4975700;28;45440;-64
2022/04/03 05:01:38;;;;;;;;;3.75;3.50;;;;;18.50;26.89;101752.31;4974999;28;45332;-64
2022/04/03 05:04:04;;;;;;;;;2.25;2.25;;;;;18.49;26.87;101750.59;4974372;28;45417;-65
2022/04/03 05:06:31;;;;;;;;;2.00;2.00;;;;;18.48;26.69;101748.88;4973664;28;47077;-67
2022/04/03 05:08:57;;;;;;;;;2.75;2.75;;;;;18.47;26.83;101760.28;4974598;28;45771;-66
2022/04/03 05:11:23;;;;;;;;;3.75;2.50;;;;;18.48;26.69;101762.00;4974616;28;45325;-63
2022/04/03 05:13:49;;;;;;;;;2.75;2.75;;;;;18.46;26.77;101766.47;4974621;28;45265;-65
2022/04/03 05:16:15;;;;;;;;;2.00;2.00;;;;;18.44;26.84;101768.28;4974436;28;46654;-62
2022/04/03 05:18:41;;;;;;;;;2.00;2.00;;;;;18.44;26.86;101768.28;4974311;28;45457;-62
2022/04/03 05:21:08;;;;;;;;;2.75;2.75;;;;;18.43;26.79;101761.31;4973563;28;45420;-64
2022/04/03 05:23:33;;;;;;;;;4.00;3.00;;;;;18.43;26.78;101766.56;4974516;28;45469;-64
2022/04/03 05:25:59;;;;;;;;;3.50;3.50;;;;;18.42;26.78;101769.22;4974453;28;46282;-63
2022/04/03 05:28:26;;;;;;;;;3.00;3.00;;;;;18.41;26.75;101762.28;4974376;28;45382;-62
2022/04/03 05:30:52;;;;;;;;;3.50;3.50;;;;;18.38;26.98;101768.44;4974453;28;45469;-62
2022/04/03 05:33:17;;;;;;;;;2.50;2.50;;;;;18.38;26.85;101768.44;4974598;28;45564;-63
2022/04/03 05:35:42;;;;;;;;;2.75;2.75;;;;;18.38;27.07;101768.44;4974016;28;45149;-61
2022/04/03 05:38:08;;;;;;;;;3.50;3.50;;;;;18.37;26.84;101777.22;4973243;28;45353;-61
2022/04/03 05:40:33;;;;;;;;;3.00;3.00;;;;;18.36;26.85;101781.63;4974451;28;45288;-61
2022/04/03 05:42:59;;;;;;;;;3.25;3.00;;;;;18.34;26.97;101783.44;4974434;28;45297;-61
2022/04/03 05:45:25;;;;;;;;;4.50;2.00;;;;;18.34;27.08;101778.19;4989061;28;48396;-61
2022/04/03 05:47:51;;;;;;;;;5.00;3.50;;;;;18.33;26.78;101786.13;4974073;28;45558;-63
2022/04/03 05:50:16;;;;;;;;;6.00;3.75;;;;;18.34;26.84;101785.22;4974233;28;45459;-61
2022/04/03 05:52:44;;;;;;;;;3.00;3.00;;;;;18.32;26.96;101784.41;4972996;28;45542;-64
2022/04/03 05:55:10;;;;;;;;;3.75;3.00;;;;;18.32;26.92;101787.03;4974074;28;45663;-65
2022/04/03 05:57:37;;;;;;;;;3.50;3.50;;;;;18.31;26.84;101788.78;4974015;28;45231;-64
2022/04/03 06:00:12;;;;;;;;;3.00;3.00;;;;;18.31;26.83;101790.56;4973896;28;45488;-66
2022/04/03 06:02:57;;;;;;;;;3.75;3.75;;;;;18.31;26.93;101777.44;4974369;28;45357;-66
2022/04/03 06:05:28;;;;;;;;;5.50;4.00;;;;;18.31;26.73;101798.44;4973697;28;45182;-66
2022/04/03 06:07:53;;;;;;;;;4.00;2.75;;;;;18.30;26.83;101794.09;4972591;28;45860;-65
2022/04/03 06:10:20;;;;;;;;;4.25;3.25;;;;;18.29;26.90;101795.00;4973721;28;45276;-64
2022/04/03 06:13:00;;;;;;;;;3.75;3.00;;;;;18.28;26.79;101795.88;4973882;28;45277;-63
2022/04/03 06:15:33;;;;;;;;;2.00;2.00;;;;;18.28;26.94;101796.75;4971869;28;46916;-62
2022/04/03 06:18:00;;;;;;;;;4.00;3.00;;;;;18.28;26.86;101798.50;4972157;28;45494;-66
2022/04/03 06:20:25;;;;;;;;;2.50;2.50;;;;;18.26;27.00;101806.44;4973671;28;45307;-65
2022/04/03 06:22:51;;;;;;;;;2.75;2.75;;;;;18.26;26.95;101806.44;4973690;28;45412;-65
2022/04/03 06:25:17;;;;;;;;;3.00;3.00;;;;;18.26;26.84;101810.81;4973360;28;46262;-65
2022/04/03 06:27:43;;;;;;;;;6.00;4.25;;;;;18.24;26.72;101811.72;4973667;28;45933;-64
2022/04/03 06:30:09;;;;;;;;;3.00;3.00;;;;;18.22;26.73;101808.31;4972172;28;45320;-65
2022/04/03 06:32:34;;;;;;;;;4.50;3.00;;;;;18.22;26.86;101813.56;4973699;28;45965;-65
2022/04/03 06:35:00;;;;;;;;;3.00;3.00;;;;;18.22;26.80;101821.44;4972967;28;46314;-66
2022/04/03 06:37:25;;;;;;;;;4.25;4.25;;;;;18.21;26.83;101822.31;4973236;28;45386;-65
2022/04/03 06:39:50;;;;;;;;;6.75;4.25;;;;;18.21;26.88;101824.06;4973581;28;45469;-65
2022/04/03 06:42:16;;;;;;;;;4.75;3.75;;;;;18.20;26.75;101820.59;4973565;28;45217;-66
2022/04/03 06:44:41;;;;;;;;;3.00;3.00;;;;;18.19;26.80;101826.75;4973418;28;45498;-62
2022/04/03 06:47:07;;;;;;;;;3.25;3.00;;;;;18.18;26.91;101825.03;4973141;28;45321;-63
2022/04/03 06:49:33;;;;;;;;;4.00;4.00;;;;;18.20;26.79;101831.09;4973248;28;45349;-65
2022/04/03 06:51:59;;;;;;;;;4.00;3.00;;;;;18.18;26.73;101832.06;4972014;28;45592;-64
2022/04/03 06:54:24;;;;;;;;;3.50;3.50;;;;;18.19;26.87;101833.78;4972806;28;46389;-63
2022/04/03 06:56:54;;;;;;;;;3.00;3.00;;;;;18.17;26.85;101832.97;4973031;28;45342;-62
2022/04/03 06:59:20;;;;;;;;;4.00;4.00;;;;;18.17;26.94;101835.59;4973234;27;45284;-66
2022/04/03 07:01:46;;;;;;;;;3.25;3.25;;;;;18.17;26.78;101839.06;4973453;28;45529;-64
2022/04/03 07:04:11;;;;;;;;;3.50;3.50;;;;;18.17;26.77;101846.94;4973330;28;45372;-65
2022/04/03 07:06:36;;;;;;;;;2.50;2.00;;;;;18.17;26.80;101838.22;4973016;28;45342;-66
2022/04/03 07:09:03;;;;;;;;;3.75;3.75;;;;;18.17;26.75;101854.78;4973094;28;45226;-66
2022/04/03 07:11:28;;;;;;;;;4.75;4.75;;;;;18.16;26.88;101842.59;4973364;28;45585;-66
2022/04/03 07:13:53;;;;;;;;;3.25;3.25;;;;;18.16;26.68;101853.06;4972674;28;45247;-64
2022/04/03 07:16:18;;;;;;;;;4.00;4.00;;;;;18.17;26.78;101859.19;4971538;28;46004;-65
2022/04/03 07:18:44;;;;;;;;;4.50;4.00;;;;;18.17;26.76;101853.97;4972636;28;54451;-65
2022/04/03 07:21:09;;;;;;;;;4.00;4.00;;;;;18.15;26.88;101848.72;4973046;28;45572;-65
2022/04/03 07:23:35;;;;;;;;;2.00;2.00;;;;;18.15;26.82;101855.75;4971318;28;46166;-66
2022/04/03 07:26:00;;;;;;;;;4.00;4.00;;;;;18.15;26.69;101861.00;4972629;28;45439;-63
2022/04/03 07:28:25;;;;;;;;;3.25;3.25;;;;;18.14;26.64;101860.13;4973766;28;45419;-63
2022/04/03 07:30:51;;;;;;;;;2.50;2.50;;;;;18.14;26.64;101868.00;4975918;28;45591;-66
2022/04/03 07:33:20;;;;;;;;;4.67;4.67;;;;;18.15;26.88;101867.09;4975755;28;53867;-67
2022/04/03 07:35:49;;;;;;;;;3.00;3.00;;;;;18.14;26.63;101864.53;4975839;28;45248;-63
2022/04/03 07:38:14;;;;;;;;;6.75;4.00;;;;;18.15;26.72;101864.47;4976033;28;45351;-64
2022/04/03 07:40:40;;;;;;;;;3.25;3.25;;;;;18.14;26.70;101860.13;4976001;28;45562;-66
2022/04/03 07:43:06;;;;;;;;;3.25;3.00;;;;;18.15;26.69;101872.34;4975518;28;46474;-66
2022/04/03 07:45:32;;;;;;;;;4.25;3.50;;;;;18.16;26.72;101868.81;4975504;28;45472;-67
2022/04/03 07:47:58;;;;;;;;;4.00;4.00;;;;;18.16;26.67;101871.44;4975722;28;45457;-66
2022/04/03 07:50:25;;;;;;;;;5.00;4.75;;;;;18.17;26.67;101873.16;4975706;28;45408;-63
2022/04/03 07:52:51;;;;;;;;;4.50;3.00;;;;;18.16;26.74;101874.06;4975421;28;45376;-65
2022/04/03 07:55:18;;;;;;;;;4.00;4.00;;;;;18.18;26.70;101877.50;4975588;28;45425;-64
2022/04/03 07:57:43;;;;;;;;;6.50;5.00;;;;;18.20;26.68;101873.09;4975787;28;45463;-63
2022/04/03 08:00:12;;;;;;;;;3.50;3.50;;;;;18.26;26.75;101876.41;4974437;28;45614;-67
2022/04/03 08:02:38;;;;;;;;;3.00;3.00;;;;;18.29;26.84;101879.84;4975203;28;47657;-67
2022/04/03 08:05:05;;;;;;;;;3.25;2.75;;;;;18.35;26.50;101886.69;4975301;28;45278;-66
2022/04/03 08:07:44;;;;;;;;;4.00;4.00;;;;;18.41;26.88;101889.09;4975337;28;45442;-66
2022/04/03 08:10:12;;;;;;;;;3.50;3.00;;;;;18.46;26.81;101891.59;4975597;28;45508;-65
2022/04/03 08:12:39;;;;;;;;;4.00;4.00;;;;;18.52;26.88;101892.28;4975173;28;45611;-64
2022/04/03 08:15:07;;;;;;;;;2.75;2.75;;;;;18.58;26.83;101900.84;4975152;28;45318;-61
2022/04/03 08:17:34;;;;;;;;;3.00;3.00;;;;;18.62;26.88;101892.88;4975152;28;45396;-67
2022/04/03 08:20:01;;;;;;;;;2.25;1.00;;;;;18.67;26.76;101895.34;4973968;28;45271;-64
2022/04/03 08:22:27;;;;;;;;;4.75;3.00;;;;;18.71;26.58;101902.22;4973876;28;48188;-63
2022/04/03 08:24:53;;;;;;;;;3.00;3.00;;;;;18.76;26.81;101902.94;4975058;28;45398;-66
2022/04/03 08:27:19;;;;;;;;;4.50;4.50;;;;;18.79;26.54;101900.22;4975542;28;45344;-65
2022/04/03 08:29:45;;;;;;;;;5.75;3.00;;;;;18.81;26.86;101905.41;4975585;28;45481;-65
2022/04/03 08:32:11;;;;;;;;;3.00;3.00;;;;;18.86;26.56;101908.75;4973570;28;47001;-64
2022/04/03 08:34:37;;;;;;;;;5.00;4.00;;;;;18.87;26.53;101907.00;4974888;28;45316;-64
2022/04/03 08:37:02;;;;;;;;;2.75;2.75;;;;;18.89;26.73;101899.94;4973754;28;45384;-62
2022/04/03 08:39:28;;;;;;;;;3.00;2.00;;;;;18.90;26.60;101901.66;4975354;28;45228;-62
2022/04/03 08:41:55;;;;;;;;;3.75;3.75;;;;;18.91;26.75;101905.97;4974838;28;46656;-64
2022/04/03 08:44:21;;;;;;;;;3.00;3.00;;;;;18.91;26.52;101904.22;4974767;28;45411;-62
2022/04/03 08:46:48;;;;;;;;;3.25;3.25;;;;;18.94;26.68;101903.28;4975437;28;45431;-64
2022/04/03 08:49:16;;;;;;;;;5.00;4.00;;;;;18.95;26.54;101910.28;4975321;28;45404;-62
2022/04/03 08:51:41;;;;;;;;;5.00;3.00;;;;;18.94;26.29;101903.28;4974796;28;45427;-62
2022/04/03 08:54:07;;;;;;;;;3.00;3.00;;;;;18.96;26.38;101910.22;4974769;28;45303;-62
2022/04/03 08:56:33;;;;;;;;;4.00;3.00;;;;;18.97;26.22;101916.34;4973612;28;45398;-63
2022/04/03 08:58:58;;;;;;;;;4.50;3.00;;;;;18.98;26.35;101904.94;4974968;28;45485;-65
2022/04/03 09:01:24;;;;;;;;;4.00;2.75;;;;;18.97;26.22;101898.78;4974424;28;49299;-65
2022/04/03 09:03:51;;;;;;;;;3.00;2.00;;;;;18.97;26.48;101895.31;4975006;28;45206;-64
2022/04/03 09:06:19;;;;;;;;;3.25;3.25;;;;;18.99;26.21;101890.88;4974855;28;45477;-64
2022/04/03 09:08:45;;;;;;;;;2.00;2.00;;;;;18.98;26.40;101899.66;4974931;28;45365;-62
2022/04/03 09:11:12;;;;;;;;;3.00;2.00;;;;;18.99;26.29;101898.78;4974411;28;46067;-64
2022/04/03 09:13:38;;;;;;;;;4.00;2.75;;;;;19.00;26.22;101909.22;4974492;28;45875;-64
2022/04/03 09:16:05;;;;;;;;;3.00;3.00;;;;;19.02;26.17;101903.91;4974519;28;45211;-65
2022/04/03 09:18:51;;;;;;;;;3.75;2.00;;;;;19.02;26.20;101896.03;4974772;28;45275;-64
2022/04/03 09:21:25;;;;;;;;;2.00;2.00;;;;;19.03;26.37;101903.00;4974315;28;45493;-64
2022/04/03 09:24:04;;;;;;;;;3.00;3.00;;;;;19.03;26.01;101903.00;4974751;28;45936;-62
2022/04/03 09:26:31;;;;;;;;;2.00;2.00;;;;;19.05;26.05;101921.38;4974563;28;45285;-63
2022/04/03 09:29:09;;;;;;;;;2.00;2.00;;;;;19.04;25.95;101907.34;4974686;28;45375;-64
2022/04/03 09:31:34;;;;;;;;;1.50;1.50;;;;;19.04;25.94;101904.72;4974284;28;45291;-64
2022/04/03 09:34:05;;;;;;;;;3.00;3.00;;;;;19.04;25.97;101904.72;4974243;28;45358;-65
2022/04/03 09:36:32;;;;;;;;;2.00;2.00;;;;;19.04;26.27;101902.09;4973062;28;45464;-65
2022/04/03 09:39:12;;;;;;;;;3.00;2.00;;;;;19.05;25.91;101906.44;4974555;28;45295;-65
2022/04/03 09:41:57;;;;;;;;;2.00;1.25;;;;;19.06;26.12;101913.41;4974090;28;46110;-66
2022/04/03 09:44:36;;;;;;;;;2.00;2.00;;;;;19.05;25.94;101909.06;4974556;28;45448;-61
2022/04/03 09:47:14;;;;;;;;;3.50;2.50;;;;;19.06;26.16;101902.91;4974016;28;45276;-62
2022/04/03 09:49:54;;;;;;;;;2.50;2.25;;;;;19.07;26.07;101903.78;4974376;28;45244;-67
2022/04/03 09:52:41;;;;;;;;;4.50;4.00;;;;;19.05;26.04;101898.56;4972220;28;46119;-63
2022/04/03 09:55:15;;;;;;;;;2.00;2.00;;;;;19.03;26.28;101903.00;4973876;28;45849;-64
2022/04/03 09:57:41;;;;;;;;;1.00;1.00;;;;;19.04;25.86;101907.34;4974183;28;45323;-63
2022/04/03 10:00:07;;;;;;;;;1.75;1.75;;;;;19.04;26.26;101906.50;4974219;28;45446;-63
2022/04/03 10:02:32;;;;;;;;;2.00;2.00;;;;;19.01;26.07;101894.34;4973722;28;47760;-64
2022/04/03 10:04:58;;;;;;;;;2.00;2.00;;;;;19.00;26.36;101889.97;4972362;28;49466;-64
2022/04/03 10:07:24;;;;;;;;;3.00;1.75;;;;;19.02;25.78;101890.75;4974256;28;45228;-65
2022/04/03 10:09:52;;;;;;;;;2.00;2.00;;;;;19.01;26.15;101894.34;4974202;28;45564;-65
2022/04/03 10:12:22;;;;;;;;;2.00;2.00;;;;;19.02;25.93;101884.66;4973750;28;46383;-64
2022/04/03 10:14:51;;;;;;;;;2.00;1.00;;;;;19.01;25.81;101891.69;4973776;28;45703;-66
2022/04/03 10:17:18;;;;;;;;;1.00;1.00;;;;;19.00;25.74;101889.97;4973809;28;45780;-66
2022/04/03 10:19:43;;;;;;;;;1.00;1.00;;;;;19.00;25.81;101900.50;4973850;28;45425;-66
2022/04/03 10:22:15;;;;;;;;;1.25;1.25;;;;;18.99;26.06;101891.72;4973622;28;45387;-65
2022/04/03 10:24:44;;;;;;;;;2.00;2.00;;;;;18.98;25.77;101889.16;4973584;28;45330;-65
2022/04/03 10:27:19;;;;;;;;;1.00;1.00;;;;;18.97;26.07;101888.28;4972628;28;45431;-65
2022/04/03 10:29:48;;;;;;;;;1.00;1.00;;;;;18.96;26.03;101888.34;4973634;28;45484;-64
2022/04/03 10:32:24;;;;;;;;;1.25;1.00;;;;;18.96;26.04;101897.06;4973291;28;45342;-65
2022/04/03 10:34:54;;;;;;;;;2.25;1.25;;;;;18.95;25.77;101886.63;4973465;28;45441;-66
2022/04/03 10:37:31;;;;;;;;;1.50;1.00;;;;;18.95;25.95;101899.75;4956174;28;45281;-66
2022/04/03 10:40:07;;;;;;;;;1.50;1.00;;;;;18.95;25.87;101889.25;4973768;28;45379;-66
2022/04/03 10:42:33;;;;;;;;;1.00;1.00;;;;;18.94;26.04;101892.78;4973135;28;46145;-66
2022/04/03 10:45:10;;;;;;;;;1.00;1.00;;;;;18.93;25.52;101894.56;4973330;28;45342;-66
2022/04/03 10:47:37;;;;;;;;;0.75;0.75;;;;;18.92;25.89;101879.69;4973296;28;45378;-66
2022/04/03 10:50:04;;;;;;;;;2.00;2.00;;;;;18.91;25.85;101890.22;4973517;28;45410;-66
2022/04/03 10:52:39;;;;;;;;;1.75;1.00;;;;;18.92;25.51;101890.19;4973067;28;46165;-66
2022/04/03 10:55:22;;;;;;;;;1.00;1.00;;;;;18.91;25.72;101884.97;4973081;28;45774;-65
2022/04/03 10:57:50;;;;;;;;;2.00;2.00;;;;;18.89;25.44;101882.41;4973190;28;45451;-65
2022/04/03 11:00:16;;;;;;;;;0.50;0.50;;;;;18.89;25.50;101884.19;4972126;28;45637;-66
2022/04/03 11:02:43;;;;;;;;;2.00;1.00;;;;;18.87;25.69;101871.06;4971741;28;47188;-65
2022/04/03 11:05:26;;;;;;;;;1.00;1.00;;;;;18.87;25.38;101868.44;4975984;28;45881;-65
2022/04/03 11:08:04;;;;;;;;;0.00;0.00;;;;;18.87;25.54;101872.84;4976683;28;45718;-63
2022/04/03 11:10:54;;;;;;;;;1.00;1.00;;;;;18.85;25.18;101863.25;4976341;28;45326;-66
2022/04/03 11:13:31;;;;;;;;;2.00;1.00;;;;;18.87;25.39;101851.84;4976011;28;46460;-63
2022/04/03 11:16:04;;;;;;;;;1.00;1.00;;;;;18.85;25.45;101851.91;4976218;28;45756;-65
2022/04/03 11:18:41;;;;;;;;;1.75;1.00;;;;;18.84;25.44;101856.28;4975914;28;45390;-65
2022/04/03 11:21:12;;;;;;;;;1.00;1.00;;;;;18.82;25.21;101838.84;4974760;28;45248;-65
2022/04/03 11:23:59;;;;;;;;;1.00;1.00;;;;;18.83;25.46;101844.03;4975758;28;45413;-66